createdAt,value
2023-03-17T00:01:32.338Z,4.06
2023-03-17T00:04:22.115Z,4.09
2023-03-17T00:07:10.028Z,4.07
2023-03-17T00:09:56.400Z,4.04
2023-03-17T00:12:42.599Z,3.97
2023-03-17T00:15:28.554Z,3.97
2023-03-17T00:18:17.500Z,3.96
2023-03-17T00:21:03.444Z,3.91
2023-03-17T00:23:52.407Z,3.90
2023-03-17T00:26:38.946Z,3.89
2023-03-17T00:29:25.581Z,3.84
2023-03-17T00:32:21.311Z,3.79
2023-03-17T00:35:19.486Z,3.83
2023-03-17T00:38:07.043Z,3.87
2023-03-17T00:40:52.923Z,3.86
2023-03-17T00:43:41.977Z,3.88
2023-03-17T00:46:35.827Z,3.93
2023-03-17T00:49:24.413Z,3.93
2023-03-17T00:52:10.528Z,3.90
2023-03-17T00:54:56.196Z,3.91
2023-03-17T00:57:43.043Z,3.92
2023-03-17T01:00:30.366Z,3.87
2023-03-17T01:03:16.468Z,3.87
2023-03-17T01:06:05.283Z,3.89
2023-03-17T01:08:52.325Z,3.85
2023-03-17T01:11:39.511Z,3.90
2023-03-17T01:14:27.029Z,3.90
2023-03-17T01:17:15.360Z,3.92
2023-03-17T01:20:01.145Z,3.92
2023-03-17T01:22:46.936Z,3.88
2023-03-17T01:25:33.868Z,3.90
2023-03-17T01:28:20.401Z,3.92
2023-03-17T01:31:06.294Z,3.81
2023-03-17T01:33:52.942Z,3.92
2023-03-17T01:36:38.792Z,3.86
2023-03-17T01:39:25.955Z,3.86
2023-03-17T01:42:12.124Z,3.86
2023-03-17T01:45:00.025Z,3.83
2023-03-17T01:47:45.682Z,3.89
2023-03-17T01:50:31.906Z,3.86
2023-03-17T01:53:20.496Z,3.85
2023-03-17T01:56:08.029Z,3.87
2023-03-17T01:58:55.061Z,3.80
2023-03-17T02:01:43.727Z,3.84
2023-03-17T02:04:30.002Z,3.80
2023-03-17T02:07:16.056Z,3.85
2023-03-17T02:10:03.114Z,3.86
2023-03-17T02:12:53.824Z,3.84
2023-03-17T02:15:41.048Z,3.86
2023-03-17T02:18:27.425Z,3.87
2023-03-17T02:21:38.454Z,3.86
2023-03-17T02:24:26.603Z,3.87
2023-03-17T02:27:31.223Z,3.86
2023-03-17T02:30:19.223Z,3.85
2023-03-17T02:33:06.106Z,3.77
2023-03-17T02:35:52.094Z,3.80
2023-03-17T02:38:38.726Z,3.83
2023-03-17T02:41:24.597Z,3.81
2023-03-17T02:44:11.006Z,3.79
2023-03-17T02:46:56.833Z,3.76
2023-03-17T02:49:43.762Z,3.77
2023-03-17T02:52:29.684Z,3.80
2023-03-17T02:55:15.384Z,3.82
2023-03-17T02:58:02.609Z,3.85
2023-03-17T03:00:49.033Z,3.84
2023-03-17T03:03:35.213Z,3.85
2023-03-17T03:06:21.248Z,3.82
2023-03-17T03:09:07.369Z,3.84
2023-03-17T03:11:53.199Z,3.85
2023-03-17T03:14:38.906Z,3.84
2023-03-17T03:17:24.498Z,3.87
2023-03-17T03:20:11.664Z,3.86
2023-03-17T03:22:57.457Z,3.77
2023-03-17T03:25:43.233Z,3.89
2023-03-17T03:28:29.222Z,3.94
2023-03-17T03:31:15.396Z,3.98
2023-03-17T03:34:01.251Z,3.95
2023-03-17T03:36:47.018Z,4.02
2023-03-17T03:40:37.732Z,3.98
2023-03-17T03:43:25.872Z,3.99
2023-03-17T03:46:11.802Z,3.98
2023-03-17T03:48:57.842Z,3.94
2023-03-17T03:51:43.444Z,3.96
2023-03-17T03:54:29.159Z,3.97
2023-03-17T03:57:14.745Z,3.92
2023-03-17T04:00:00.788Z,3.99
2023-03-17T04:02:47.010Z,3.99
2023-03-17T04:05:33.304Z,3.89
2023-03-17T04:08:19.347Z,3.97
2023-03-17T04:11:05.132Z,4.03
2023-03-17T04:13:51.273Z,4.03
2023-03-17T04:16:37.296Z,4.03
2023-03-17T04:19:23.582Z,4.02
2023-03-17T04:22:12.022Z,4.03
2023-03-17T04:24:58.006Z,4.04
2023-03-17T04:27:43.857Z,4.08
2023-03-17T04:30:30.580Z,4.11
2023-03-17T04:33:16.896Z,4.08
2023-03-17T04:36:04.185Z,4.12
2023-03-17T04:38:50.509Z,4.14
2023-03-17T04:41:36.347Z,4.11
2023-03-17T04:44:22.254Z,4.12
2023-03-17T04:47:10.567Z,4.12
2023-03-17T04:49:56.312Z,4.11
2023-03-17T04:52:42.157Z,4.08
2023-03-17T04:55:28.301Z,4.10
2023-03-17T04:58:29.942Z,4.07
2023-03-17T05:01:18.053Z,4.09
2023-03-17T05:04:04.364Z,4.16
2023-03-17T05:06:50.105Z,4.11
2023-03-17T05:09:35.885Z,4.16
2023-03-17T05:12:21.815Z,4.16
2023-03-17T05:15:08.016Z,4.16
2023-03-17T05:17:53.726Z,4.18
2023-03-17T05:20:39.736Z,4.19
2023-03-17T05:23:25.936Z,4.16
2023-03-17T05:26:12.067Z,4.17
2023-03-17T05:28:57.729Z,4.16
2023-03-17T05:31:43.367Z,4.09
2023-03-17T05:34:29.174Z,4.15
2023-03-17T05:37:15.722Z,4.17
2023-03-17T05:40:01.744Z,4.14
2023-03-17T05:42:51.545Z,4.16
2023-03-17T05:45:39.311Z,4.10
2023-03-17T05:48:25.459Z,4.14
2023-03-17T05:51:11.580Z,4.15
2023-03-17T05:53:57.674Z,4.16
2023-03-17T05:56:43.261Z,4.18
2023-03-17T05:59:29.171Z,4.19
2023-03-17T06:02:15.742Z,4.18
2023-03-17T06:05:02.585Z,4.20
2023-03-17T06:07:54.859Z,4.22
2023-03-17T06:10:43.245Z,4.26
2023-03-17T06:13:29.287Z,4.28
2023-03-17T06:16:15.014Z,4.28
2023-03-17T06:19:01.245Z,4.36
2023-03-17T06:21:48.636Z,4.37
2023-03-17T06:24:34.598Z,4.39
2023-03-17T06:27:20.418Z,4.37
2023-03-17T06:30:08.320Z,4.42
2023-03-17T06:32:54.991Z,4.49
2023-03-17T06:35:41.485Z,4.51
2023-03-17T06:38:27.405Z,4.51
2023-03-17T06:41:13.723Z,4.56
2023-03-17T06:43:59.411Z,4.57
2023-03-17T06:46:45.054Z,4.67
2023-03-17T06:49:31.326Z,4.71
2023-03-17T06:52:17.039Z,4.76
2023-03-17T06:55:02.797Z,4.81
2023-03-17T06:57:50.892Z,4.86
2023-03-17T07:00:40.079Z,4.90
2023-03-17T07:03:26.730Z,4.92
2023-03-17T07:06:12.761Z,4.98
2023-03-17T07:09:00.901Z,5.03
2023-03-17T07:11:47.827Z,5.09
2023-03-17T07:14:35.698Z,5.14
2023-03-17T07:17:21.632Z,5.15
2023-03-17T07:20:07.951Z,5.18
2023-03-17T07:22:53.832Z,5.22
2023-03-17T07:25:42.184Z,5.24
2023-03-17T07:28:28.370Z,5.25
2023-03-17T07:31:14.595Z,5.27
2023-03-17T07:34:00.453Z,5.26
2023-03-17T07:36:46.543Z,5.30
2023-03-17T07:39:36.013Z,5.37
2023-03-17T07:42:21.901Z,5.43
2023-03-17T07:45:08.252Z,5.59
2023-03-17T07:47:54.213Z,5.68
2023-03-17T07:50:40.297Z,5.79
2023-03-17T07:53:26.508Z,5.86
2023-03-17T07:56:18.587Z,5.93
2023-03-17T07:59:04.687Z,5.99
2023-03-17T08:01:50.804Z,6.08
2023-03-17T08:04:37.633Z,6.13
2023-03-17T08:07:23.605Z,6.20
2023-03-17T08:10:52.129Z,6.32
2023-03-17T08:13:38.056Z,6.39
2023-03-17T08:16:24.138Z,6.47
2023-03-17T08:19:10.834Z,6.53
2023-03-17T08:21:56.598Z,6.63
2023-03-17T08:24:43.141Z,6.69
2023-03-17T08:27:29.807Z,6.78
2023-03-17T08:30:17.356Z,6.88
2023-03-17T08:33:03.628Z,6.93
2023-03-17T08:35:50.031Z,7.00
2023-03-17T08:38:37.560Z,7.09
2023-03-17T08:41:25.083Z,7.22
2023-03-17T08:44:11.046Z,7.36
2023-03-17T08:46:57.042Z,7.45
2023-03-17T08:49:43.801Z,7.68
2023-03-17T08:52:29.729Z,7.85
2023-03-17T08:55:16.348Z,8.02
2023-03-17T08:58:02.795Z,8.17
2023-03-17T09:00:49.135Z,8.32
2023-03-17T09:03:34.947Z,8.47
2023-03-17T09:06:21.338Z,8.51
2023-03-17T09:09:08.010Z,8.54
2023-03-17T09:11:54.315Z,8.53
2023-03-17T09:14:44.075Z,8.58
2023-03-17T09:17:30.332Z,8.65
2023-03-17T09:20:16.453Z,8.76
2023-03-17T09:23:06.534Z,8.85
2023-03-17T09:25:52.820Z,8.90
2023-03-17T09:28:39.040Z,8.90
2023-03-17T09:31:25.278Z,8.96
2023-03-17T09:34:11.415Z,8.98
2023-03-17T09:36:57.539Z,8.98
2023-03-17T09:39:43.619Z,9.03
2023-03-17T09:42:42.747Z,9.09
2023-03-17T09:45:34.718Z,9.15
2023-03-17T09:49:07.417Z,9.28
2023-03-17T09:51:53.541Z,9.44
2023-03-17T09:54:39.374Z,9.56
2023-03-17T09:57:39.104Z,9.68
2023-03-17T10:00:27.797Z,9.74
2023-03-17T10:03:13.979Z,9.77
2023-03-17T10:06:35.272Z,9.75
2023-03-17T10:09:26.634Z,9.70
2023-03-17T10:12:28.157Z,9.63
2023-03-17T10:15:24.302Z,9.60
2023-03-17T10:18:15.329Z,9.58
2023-03-17T10:21:04.102Z,9.57
2023-03-17T10:23:50.510Z,9.56
2023-03-17T10:26:40.624Z,9.54
2023-03-17T10:29:26.551Z,9.49
2023-03-17T10:32:13.565Z,9.47
2023-03-17T10:34:59.449Z,9.46
2023-03-17T10:37:47.504Z,9.43
2023-03-17T10:40:36.205Z,9.49
2023-03-17T10:43:23.088Z,9.48
2023-03-17T10:46:24.495Z,9.55
2023-03-17T10:49:17.011Z,9.54
2023-03-17T10:52:08.435Z,9.55
2023-03-17T10:54:54.651Z,9.62
2023-03-17T10:57:41.432Z,9.66
2023-03-17T11:00:30.015Z,9.73
2023-03-17T11:03:24.768Z,9.83
2023-03-17T11:06:17.050Z,9.89
2023-03-17T11:09:10.068Z,9.82
2023-03-17T11:12:18.569Z,9.89
2023-03-17T11:15:07.086Z,9.93
2023-03-17T11:18:00.512Z,9.99
2023-03-17T11:21:07.524Z,10.02
2023-03-17T11:24:14.912Z,10.14
2023-03-17T11:27:03.903Z,10.23
2023-03-17T11:30:08.675Z,10.27
2023-03-17T11:33:13.258Z,10.25
2023-03-17T11:36:09.691Z,10.18
2023-03-17T11:39:11.722Z,10.14
2023-03-17T11:41:57.714Z,10.19
2023-03-17T11:45:13.169Z,10.26
2023-03-17T11:48:20.342Z,10.35
2023-03-17T11:51:43.263Z,10.34
2023-03-17T11:55:00.278Z,10.38
2023-03-17T11:57:49.057Z,10.69
2023-03-17T12:00:42.139Z,11.09
2023-03-17T12:03:53.140Z,11.28
2023-03-17T12:06:44.148Z,11.29
2023-03-17T12:09:29.766Z,11.22
2023-03-17T12:12:21.500Z,11.07
2023-03-17T12:15:15.812Z,10.94
2023-03-17T12:18:15.601Z,10.73
2023-03-17T12:21:20.687Z,10.70
2023-03-17T12:24:17.369Z,10.83
2023-03-17T12:27:08.916Z,10.77
2023-03-17T12:30:03.667Z,10.72
2023-03-17T12:33:13.541Z,10.66
2023-03-17T12:36:01.302Z,10.55
2023-03-17T12:38:53.873Z,10.52
2023-03-17T12:41:56.780Z,10.46
2023-03-17T12:44:58.223Z,10.52
2023-03-17T12:47:50.238Z,10.55
2023-03-17T12:50:45.192Z,10.63
2023-03-17T12:53:33.760Z,10.68
2023-03-17T12:56:22.448Z,10.67
2023-03-17T12:59:17.115Z,10.86
2023-03-17T13:02:18.108Z,10.95
2023-03-17T13:05:10.158Z,11.18
2023-03-17T13:08:00.237Z,11.32
2023-03-17T13:10:48.653Z,11.47
2023-03-17T13:13:46.786Z,11.48
2023-03-17T13:16:41.328Z,11.55
2023-03-17T13:19:32.943Z,11.57
2023-03-17T13:22:21.684Z,11.62
2023-03-17T13:25:35.037Z,11.69
2023-03-17T13:28:51.157Z,12.01
2023-03-17T13:31:37.893Z,12.32
2023-03-17T13:34:23.671Z,12.72
2023-03-17T13:37:47.464Z,13.54
2023-03-17T13:40:48.321Z,14.25
2023-03-17T13:44:23.382Z,14.57
2023-03-17T13:47:24.708Z,14.97
2023-03-17T13:50:25.556Z,15.45
2023-03-17T13:53:13.728Z,16.16
2023-03-17T13:56:12.468Z,17.06
2023-03-17T13:59:02.351Z,17.41
2023-03-17T14:01:57.681Z,17.77
2023-03-17T14:04:59.965Z,18.21
2023-03-17T14:07:59.602Z,18.56
2023-03-17T14:10:54.334Z,19.00
2023-03-17T14:13:46.960Z,19.48
2023-03-17T14:16:36.948Z,19.89
2023-03-17T14:19:27.101Z,19.66
2023-03-17T14:22:25.907Z,19.25
2023-03-17T14:25:21.587Z,18.75
2023-03-17T14:28:11.497Z,18.26
2023-03-17T14:31:03.601Z,17.81
2023-03-17T14:33:53.116Z,17.32
2023-03-17T14:36:39.415Z,16.81
2023-03-17T14:39:26.683Z,16.33
2023-03-17T14:42:12.568Z,15.87
2023-03-17T14:45:04.778Z,15.55
2023-03-17T14:47:51.474Z,15.17
2023-03-17T14:50:37.209Z,14.84
2023-03-17T14:53:24.268Z,14.54
2023-03-17T14:56:10.597Z,14.26
2023-03-17T14:59:05.021Z,13.98
2023-03-17T15:01:56.576Z,13.68
2023-03-17T15:04:53.870Z,13.35
2023-03-17T15:07:42.183Z,13.17
2023-03-17T15:10:31.474Z,12.98
2023-03-17T15:13:17.469Z,12.89
2023-03-17T15:16:17.218Z,12.75
2023-03-17T15:19:28.990Z,12.61
2023-03-17T15:22:43.802Z,12.42
2023-03-17T15:25:43.201Z,12.26
2023-03-17T15:28:31.675Z,12.09
2023-03-17T15:31:17.469Z,12.00
2023-03-17T15:34:03.230Z,11.92
2023-03-17T15:36:49.972Z,11.81
2023-03-17T15:39:35.862Z,11.67
2023-03-17T15:42:28.690Z,11.59
2023-03-17T15:45:16.018Z,11.47
2023-03-17T15:48:02.107Z,11.40
2023-03-17T15:50:48.256Z,11.32
2023-03-17T15:53:33.929Z,11.35
2023-03-17T15:56:21.322Z,11.35
2023-03-17T15:59:07.394Z,11.31
2023-03-17T16:01:53.231Z,11.21
2023-03-17T16:04:39.345Z,11.17
2023-03-17T16:07:25.942Z,11.10
2023-03-17T16:10:20.148Z,11.02
2023-03-17T16:13:06.235Z,10.97
2023-03-17T16:16:01.011Z,10.92
2023-03-17T16:18:48.846Z,10.88
2023-03-17T16:21:34.906Z,10.83
2023-03-17T16:24:22.979Z,10.73
2023-03-17T16:27:14.623Z,10.61
2023-03-17T16:30:00.427Z,10.53
2023-03-17T16:32:46.460Z,10.40
2023-03-17T16:35:32.103Z,10.35
2023-03-17T16:38:20.612Z,10.23
2023-03-17T16:41:14.679Z,10.12
2023-03-17T16:44:01.244Z,10.02
2023-03-17T16:46:47.733Z,9.90
2023-03-17T16:49:33.336Z,9.80
2023-03-17T16:52:19.034Z,9.70
2023-03-17T16:55:05.169Z,9.59
2023-03-17T16:57:52.281Z,9.46
2023-03-17T17:00:38.271Z,9.45
2023-03-17T17:03:24.198Z,9.42
2023-03-17T17:06:11.438Z,9.41
2023-03-17T17:08:57.123Z,9.35
2023-03-17T17:11:42.734Z,9.36
2023-03-17T17:14:28.559Z,9.42
2023-03-17T17:17:14.346Z,9.41
2023-03-17T17:20:02.078Z,9.44
2023-03-17T17:22:48.763Z,9.45
2023-03-17T17:25:34.601Z,9.43
2023-03-17T17:28:23.329Z,9.40
2023-03-17T17:31:10.806Z,9.37
2023-03-17T17:33:56.991Z,9.35
2023-03-17T17:36:43.092Z,9.26
2023-03-17T17:39:30.992Z,9.24
2023-03-17T17:42:17.568Z,9.20
2023-03-17T17:45:04.011Z,9.17
2023-03-17T17:47:50.729Z,9.13
2023-03-17T17:50:46.812Z,9.04
2023-03-17T17:53:32.674Z,9.02
2023-03-17T17:56:18.707Z,9.04
2023-03-17T17:59:04.577Z,9.03
2023-03-17T18:01:50.764Z,8.98
2023-03-17T18:04:37.149Z,8.92
2023-03-17T18:07:23.674Z,8.92
2023-03-17T18:10:16.901Z,8.85
2023-03-17T18:13:02.824Z,8.78
2023-03-17T18:15:48.632Z,8.71
2023-03-17T18:18:35.255Z,8.62
2023-03-17T18:21:21.551Z,8.55
2023-03-17T18:24:07.784Z,8.40
2023-03-17T18:26:53.900Z,8.36
2023-03-17T18:29:40.142Z,8.23
2023-03-17T18:32:27.144Z,8.10
2023-03-17T18:35:17.283Z,7.96
2023-03-17T18:38:03.276Z,7.83
2023-03-17T18:40:49.286Z,7.81
2023-03-17T18:43:35.155Z,7.75
2023-03-17T18:46:21.493Z,7.69
2023-03-17T18:49:07.712Z,7.63
2023-03-17T18:51:54.874Z,7.54
2023-03-17T18:54:40.887Z,7.47
2023-03-17T18:57:27.711Z,7.39
2023-03-17T19:00:15.258Z,7.30
2023-03-17T19:03:01.167Z,7.21
2023-03-17T19:05:47.130Z,7.10
2023-03-17T19:08:32.951Z,6.98
2023-03-17T19:11:21.684Z,6.91
2023-03-17T19:14:14.040Z,6.78
2023-03-17T19:17:00.011Z,6.61
2023-03-17T19:19:46.409Z,6.47
2023-03-17T19:22:32.944Z,6.40
2023-03-17T19:25:20.017Z,6.33
2023-03-17T19:28:07.399Z,6.27
2023-03-17T19:30:53.535Z,6.25
2023-03-17T19:33:39.560Z,6.28
2023-03-17T19:36:25.586Z,6.21
2023-03-17T19:39:11.581Z,6.20
2023-03-17T19:41:59.221Z,6.13
2023-03-17T19:44:45.690Z,6.08
2023-03-17T19:47:31.445Z,6.03
2023-03-17T19:50:17.541Z,5.98
2023-03-17T19:53:03.960Z,5.90
2023-03-17T19:55:49.948Z,5.92
2023-03-17T19:58:36.101Z,5.90
2023-03-17T20:01:23.225Z,5.91
2023-03-17T20:04:11.544Z,5.85
2023-03-17T20:06:58.372Z,5.88
2023-03-17T20:09:48.245Z,5.89
2023-03-17T20:12:37.724Z,5.87
2023-03-17T20:15:23.504Z,5.86
2023-03-17T20:18:09.380Z,5.78
2023-03-17T20:20:57.550Z,5.76
2023-03-17T20:23:43.562Z,5.82
2023-03-17T20:26:29.215Z,5.75
2023-03-17T20:29:17.593Z,5.65
2023-03-17T20:32:04.860Z,5.71
2023-03-17T20:34:50.879Z,5.69
2023-03-17T20:37:37.380Z,5.64
2023-03-17T20:40:27.716Z,5.60
2023-03-17T20:43:14.179Z,5.51
2023-03-17T20:45:59.854Z,5.44
2023-03-17T20:48:49.289Z,5.38
2023-03-17T20:51:35.946Z,5.32
2023-03-17T20:54:23.416Z,5.25
2023-03-17T20:57:14.227Z,5.15
2023-03-17T21:00:00.251Z,4.94
2023-03-17T21:02:50.398Z,4.81
2023-03-17T21:05:36.852Z,4.67
2023-03-17T21:08:23.542Z,4.50
2023-03-17T21:11:16.189Z,4.36
2023-03-17T21:14:04.408Z,4.16
2023-03-17T21:16:50.751Z,4.06
2023-03-17T21:19:37.297Z,4.00
2023-03-17T21:22:23.194Z,3.92
2023-03-17T21:25:10.462Z,3.85
2023-03-17T21:27:56.621Z,3.86
2023-03-17T21:30:43.760Z,3.88
2023-03-17T21:33:30.170Z,3.86
2023-03-17T21:36:16.739Z,3.93
2023-03-17T21:39:02.928Z,3.94
2023-03-17T21:41:51.531Z,3.94
2023-03-17T21:44:37.435Z,3.94
2023-03-17T21:47:23.240Z,3.94
2023-03-17T21:50:09.671Z,3.92
2023-03-17T21:52:55.531Z,3.87
2023-03-17T21:55:41.568Z,3.83
2023-03-17T21:58:28.081Z,3.84
2023-03-17T22:01:14.495Z,3.71
2023-03-17T22:04:00.541Z,3.67
2023-03-17T22:06:46.499Z,3.62
2023-03-17T22:09:32.882Z,3.62
2023-03-17T22:12:19.630Z,3.61
2023-03-17T22:15:06.389Z,3.58
2023-03-17T22:17:53.248Z,3.55
2023-03-17T22:20:39.151Z,3.60
2023-03-17T22:23:25.908Z,3.54
2023-03-17T22:26:14.127Z,3.53
2023-03-17T22:29:00.505Z,3.42
2023-03-17T22:31:46.893Z,3.41
2023-03-17T22:34:32.807Z,3.44
2023-03-17T22:37:18.836Z,3.40
2023-03-17T22:40:06.604Z,3.37
2023-03-17T22:42:56.247Z,3.35
2023-03-17T22:45:42.355Z,3.24
2023-03-17T22:48:28.379Z,3.32
2023-03-17T22:51:18.982Z,3.35
2023-03-17T22:54:04.761Z,3.32
2023-03-17T22:56:50.904Z,3.31
2023-03-17T22:59:36.994Z,3.28
2023-03-17T23:02:23.298Z,3.30
2023-03-17T23:05:09.782Z,3.29
2023-03-17T23:07:55.910Z,3.21
2023-03-17T23:10:42.442Z,3.13
2023-03-17T23:13:28.639Z,3.12
2023-03-17T23:16:15.231Z,3.06
2023-03-17T23:19:01.312Z,3.08
2023-03-17T23:21:47.455Z,3.03
2023-03-17T23:24:33.122Z,3.02
2023-03-17T23:27:18.881Z,2.99
2023-03-17T23:30:05.982Z,2.99
2023-03-17T23:32:52.160Z,3.00
2023-03-17T23:35:38.210Z,2.91
2023-03-17T23:38:24.158Z,2.93
2023-03-17T23:41:12.800Z,2.92
2023-03-17T23:43:58.792Z,2.87
2023-03-17T23:46:45.232Z,2.87
2023-03-17T23:49:31.200Z,2.84
2023-03-17T23:52:17.872Z,2.82
2023-03-17T23:55:05.961Z,2.73
2023-03-17T23:57:52.138Z,2.72
